Japan Airlines Virtual Airport Information Service

London Heathrow Airport

ICAO: EGLL Country: United Kingdom
Latitude: 51.4775 Longitude: -0.46138
Latest Arrival : BAW19 (SBGR-EGLL) Latest Departure : BAW464 (EGLL-LEMD)


WX CaptureLIVE
Data provided by noaa.gov | Fetched at 13:32:43

METAR : EGLL 061320Z AUTO 16007KT 130V220 9999 SCT033 27/17 Q1017 NOSIG

TAF : EGLL 061058Z 0612/0718 20007KT 9999 SCT030 PROB30 0702/0707 5000 BR


Runway Data for EGLL
Data provided by openaviationdata.com

Runway ID Mag Var Hdg Length Elevation Surface ILS Freq ILS Id ILS Slope
09L -1 90° 13160 ft 83 ft Asphalt 110.3 IAA 3
09R -1 91° 12396 ft 83 ft Asphalt 109.5 IBB 3
27L -1 271° 12396 ft 83 ft Asphalt 109.5 ILL 3
27R -1 270° 13160 ft 83 ft Asphalt 110.3 IRR 3

London Heathrow Airport, United Kingdom
Use only for reference purposes



Not for navigational purposes.